Time;durP1;ratioP1;P1;durP2;ratioP2;P2;SDS_P1;SDS_P2;PMS_P1;PMS_P2;Temp;Humidity;BMP_temperature;BMP_pressure;BME280_temperature;BME280_humidity;BME280_pressure;Samples;Min_cycle;Max_cycle;Signal;HPM_P1;HPM_P2
2023/11/16 00:00:58;;;;;;;4.22;0.38;;;10.90;99.90;;;;;;5020495;28;20125;-78
2023/11/16 00:03:24;;;;;;;2.97;0.40;;;10.10;99.90;;;;;;5020670;28;20038;-78
2023/11/16 00:05:50;;;;;;;7.93;0.63;;;10.10;99.90;;;;;;5020462;28;20021;-77
2023/11/16 00:08:16;;;;;;;5.90;0.22;;;10.10;99.90;;;;;;5021225;28;20123;-78
2023/11/16 00:10:42;;;;;;;2.95;0.50;;;10.20;99.90;;;;;;5017554;28;20022;-76
2023/11/16 00:13:09;;;;;;;14.07;0.40;;;12.30;99.90;;;;;;5020719;28;20537;-77
2023/11/16 00:15:38;;;;;;;4.45;0.10;;;10.10;99.90;;;;;;5018882;28;20014;-78
2023/11/16 00:18:04;;;;;;;;;;;11.60;99.90;;;;;;5019640;28;20022;-78
2023/11/16 00:20:32;;;;;;;7.22;0.05;;;12.80;99.90;;;;;;5018171;28;19905;-78
2023/11/16 00:22:58;;;;;;;14.95;1.23;;;10.10;99.90;;;;;;5017270;28;20113;-78
2023/11/16 00:25:24;;;;;;;6.32;0.00;;;10.30;99.90;;;;;;5016081;28;20014;-78
2023/11/16 00:27:50;;;;;;;5.93;0.63;;;12.80;99.90;;;;;;5016997;28;20391;-78
2023/11/16 00:30:16;;;;;;;7.03;0.22;;;12.50;99.90;;;;;;5016977;28;20021;-78
2023/11/16 00:32:41;;;;;;;4.10;0.22;;;9.70;99.90;;;;;;5016807;28;20097;-78
2023/11/16 00:35:08;;;;;;;5.32;0.00;;;9.70;99.90;;;;;;5016956;28;20045;-78
2023/11/16 00:37:34;;;;;;;6.18;0.10;;;9.60;99.90;;;;;;5017020;28;20037;-78
2023/11/16 00:40:00;;;;;;;4.47;0.20;;;9.60;99.90;;;;;;5016720;28;20026;-78
2023/11/16 00:42:28;;;;;;;4.28;0.32;;;10.00;99.90;;;;;;5019420;28;20113;-77
2023/11/16 00:44:53;;;;;;;3.13;0.00;;;9.50;99.90;;;;;;5018269;28;20022;-76
2023/11/16 00:47:19;;;;;;;1.65;0.00;;;11.80;99.90;;;;;;5019690;28;20030;-78
2023/11/16 00:49:48;;;;;;;0.20;0.00;;;11.60;99.90;;;;;;5016673;28;20021;-78
2023/11/16 00:52:14;;;;;;;2.55;0.00;;;9.40;99.90;;;;;;5017766;28;20029;-78
2023/11/16 00:54:40;;;;;;;1.05;0.20;;;9.40;99.90;;;;;;5015103;28;20022;-77
2023/11/16 00:57:06;;;;;;;0.00;0.00;;;12.00;99.90;;;;;;5019957;28;20021;-78
2023/11/16 00:59:32;;;;;;;1.10;0.00;;;9.30;99.90;;;;;;5018566;28;20060;-78
2023/11/16 01:01:59;;;;;;;3.40;0.00;;;10.60;99.90;;;;;;5017748;28;20045;-78
2023/11/16 01:04:25;;;;;;;1.70;0.00;;;9.20;99.90;;;;;;5017140;28;20486;-78
2023/11/16 01:06:51;;;;;;;1.52;0.00;;;9.30;99.90;;;;;;5018319;28;20049;-77
2023/11/16 01:09:16;;;;;;;0.98;0.00;;;9.20;99.90;;;;;;5017949;28;20026;-78
2023/11/16 01:11:43;;;;;;;1.20;0.00;;;9.10;99.90;;;;;;5016140;28;20053;-77
2023/11/16 01:14:09;;;;;;;1.52;0.00;;;12.20;99.90;;;;;;5016413;28;20018;-77
2023/11/16 01:16:41;;;;;;;0.30;0.00;;;;;;;;;;5015453;28;20018;-78
2023/11/16 01:19:08;;;;;;;2.88;0.20;;;9.10;99.90;;;;;;5016754;28;20053;-77
2023/11/16 01:21:41;;;;;;;5.22;0.00;;;11.10;99.90;;;;;;5015288;28;20026;-77
2023/11/16 01:24:08;;;;;;;3.17;0.05;;;9.10;99.90;;;;;;5015394;28;20041;-77
2023/11/16 01:26:35;;;;;;;1.20;0.00;;;9.10;99.90;;;;;;5015116;28;20049;-78
2023/11/16 01:29:08;;;;;;;3.13;0.00;;;9.00;99.90;;;;;;5018622;28;20021;-78
2023/11/16 01:31:34;;;;;;;0.45;0.00;;;11.00;99.90;;;;;;5020515;28;20116;-78
2023/11/16 01:34:00;;;;;;;4.50;0.30;;;9.00;99.90;;;;;;5019271;28;20018;-77
2023/11/16 01:36:26;;;;;;;3.20;0.20;;;9.00;99.90;;;;;;5020897;28;20033;-78
2023/11/16 01:38:52;;;;;;;3.88;0.10;;;10.80;99.90;;;;;;5020595;28;20109;-78
2023/11/16 01:41:18;;;;;;;0.98;0.00;;;11.60;99.90;;;;;;5019026;28;20504;-79
2023/11/16 01:43:45;;;;;;;1.65;0.00;;;12.30;99.90;;;;;;5019158;28;20030;-78
2023/11/16 01:46:12;;;;;;;6.13;0.00;;;11.30;99.90;;;;;;5020138;28;20050;-77
2023/11/16 01:48:42;;;;;;;0.13;0.00;;;9.00;99.90;;;;;;5019024;28;20026;-77
2023/11/16 01:51:11;;;;;;;1.25;0.20;;;9.30;99.90;;;;;;5019505;28;20026;-78
2023/11/16 01:53:43;;;;;;;2.95;0.00;;;8.90;99.90;;;;;;5021023;28;20481;-77
2023/11/16 01:56:15;;;;;;;2.08;0.00;;;8.90;99.90;;;;;;5020138;28;20503;-77
2023/11/16 01:58:43;;;;;;;1.55;0.00;;;11.50;99.90;;;;;;5020175;28;20026;-77
2023/11/16 02:01:09;;;;;;;2.53;0.00;;;8.90;99.90;;;;;;5020784;28;20037;-77
2023/11/16 02:03:35;;;;;;;3.75;0.22;;;9.80;99.90;;;;;;5019983;28;20022;-77
2023/11/16 02:06:03;;;;;;;0.55;0.00;;;8.80;99.90;;;;;;5018920;28;20032;-77
2023/11/16 02:08:29;;;;;;;4.72;0.10;;;8.80;99.90;;;;;;5018979;28;20061;-77
2023/11/16 02:10:55;;;;;;;5.15;0.20;;;10.40;99.90;;;;;;5019336;28;20057;-78
2023/11/16 02:13:23;;;;;;;1.45;0.15;;;8.80;99.90;;;;;;5018978;28;20056;-77
2023/11/16 02:15:52;;;;;;;1.92;0.00;;;;;;;;;;5020060;28;20049;-77
2023/11/16 02:18:17;;;;;;;4.22;0.00;;;8.80;99.90;;;;;;5020508;28;20551;-77
2023/11/16 02:20:45;;;;;;;4.03;0.00;;;10.00;99.90;;;;;;5021219;28;20053;-77
2023/11/16 02:23:11;;;;;;;1.85;0.40;;;9.50;99.90;;;;;;5020479;28;20022;-77
2023/11/16 02:25:50;;;;;;;3.67;0.15;;;9.60;99.90;;;;;;5018757;28;20109;-77
2023/11/16 02:28:17;;;;;;;1.27;0.00;;;8.60;99.90;;;;;;5019012;28;20030;-77
2023/11/16 02:30:43;;;;;;;3.55;0.73;;;8.70;99.90;;;;;;5018270;28;20433;-77
2023/11/16 02:33:09;;;;;;;1.85;0.00;;;8.70;99.90;;;;;;5017975;28;20436;-77
2023/11/16 02:35:35;;;;;;;2.08;0.00;;;8.70;99.90;;;;;;5018330;28;20022;-77
2023/11/16 02:38:01;;;;;;;2.60;0.00;;;8.70;99.90;;;;;;5017602;28;20057;-76
2023/11/16 02:40:27;;;;;;;1.88;0.00;;;11.70;99.90;;;;;;5019434;28;20026;-77
2023/11/16 02:42:53;;;;;;;2.45;0.13;;;10.30;99.90;;;;;;5021944;28;20022;-78
2023/11/16 02:45:22;;;;;;;1.13;0.00;;;8.70;99.90;;;;;;5017648;28;20018;-79
2023/11/16 02:47:52;;;;;;;4.15;0.05;;;8.60;99.90;;;;;;5018179;28;20048;-78
2023/11/16 02:50:19;;;;;;;3.05;0.03;;;8.70;99.90;;;;;;5020570;28;20509;-76
2023/11/16 02:52:51;;;;;;;2.53;0.03;;;8.70;99.90;;;;;;5020562;28;20057;-78
2023/11/16 02:55:20;;;;;;;2.80;0.00;;;8.70;99.90;;;;;;5019247;28;20046;-76
2023/11/16 02:57:45;;;;;;;1.90;0.00;;;8.70;99.90;;;;;;5018326;28;20060;-77
2023/11/16 03:00:12;;;;;;;0.63;0.00;;;11.20;99.90;;;;;;5016115;28;20441;-79
2023/11/16 03:02:42;;;;;;;4.20;0.20;;;8.70;99.90;;;;;;5016797;28;20084;-78
2023/11/16 03:05:14;;;;;;;2.30;0.10;;;8.70;99.90;;;;;;5018879;28;20037;-78
2023/11/16 03:07:40;;;;;;;6.40;0.90;;;8.60;99.90;;;;;;5017365;28;20030;-78
2023/11/16 03:10:12;;;;;;;1.45;0.10;;;10.30;99.90;;;;;;5017915;28;20021;-78
2023/11/16 03:12:39;;;;;;;1.52;0.00;;;8.60;99.90;;;;;;5017991;28;20029;-77
2023/11/16 03:15:05;;;;;;;0.40;0.00;;;8.50;99.90;;;;;;5016975;28;20024;-78
2023/11/16 03:17:37;;;;;;;5.65;0.10;;;8.50;99.90;;;;;;5017022;28;20026;-78
2023/11/16 03:20:03;;;;;;;1.67;0.00;;;8.40;99.90;;;;;;5015846;28;20037;-77
2023/11/16 03:22:30;;;;;;;2.90;0.13;;;8.30;99.90;;;;;;5017047;28;20029;-78
2023/11/16 03:24:55;;;;;;;5.25;0.00;;;8.30;99.90;;;;;;5017918;28;20026;-79
2023/11/16 03:27:21;;;;;;;3.67;0.98;;;8.20;99.90;;;;;;5015918;28;20052;-78
2023/11/16 03:29:50;;;;;;;4.72;0.15;;;8.10;99.90;;;;;;5017609;28;20026;-78
2023/11/16 03:32:15;;;;;;;1.50;0.10;;;8.10;99.90;;;;;;5018602;28;20493;-77
2023/11/16 03:34:41;;;;;;;2.65;0.00;;;8.10;99.90;;;;;;5016930;28;20014;-78
2023/11/16 03:37:07;;;;;;;1.40;0.00;;;8.10;99.90;;;;;;5017257;28;20045;-78
2023/11/16 03:39:33;;;;;;;7.15;0.52;;;8.00;99.90;;;;;;5016394;28;20093;-77
2023/11/16 03:41:59;;;;;;;2.35;0.32;;;7.80;99.90;;;;;;5016422;28;20026;-78
2023/11/16 03:44:26;;;;;;;3.22;0.30;;;8.00;99.90;;;;;;5016526;28;20033;-78
2023/11/16 03:46:53;;;;;;;1.30;0.45;;;10.80;99.90;;;;;;5016442;28;20013;-78
2023/11/16 03:49:18;;;;;;;6.22;0.00;;;7.90;99.90;;;;;;5017344;28;20148;-79
2023/11/16 03:51:47;;;;;;;1.65;0.45;;;7.80;99.90;;;;;;5015433;28;20050;-78
2023/11/16 03:54:17;;;;;;;3.63;0.00;;;8.00;99.90;;;;;;5017218;28;20025;-77
2023/11/16 03:56:43;;;;;;;1.65;0.00;;;7.90;99.90;;;;;;5015214;28;20042;-77
2023/11/16 03:59:08;;;;;;;6.10;0.00;;;7.90;99.90;;;;;;5016372;28;20030;-79
2023/11/16 04:01:35;;;;;;;7.97;0.32;;;;;;;;;;5017511;28;20029;-77
2023/11/16 04:04:01;;;;;;;1.35;0.00;;;;;;;;;;5017326;28;20026;-77
2023/11/16 04:06:27;;;;;;;3.85;0.00;;;7.80;99.90;;;;;;5020160;28;20109;-78
2023/11/16 04:08:52;;;;;;;2.38;0.00;;;7.80;99.90;;;;;;5021389;28;20470;-78
2023/11/16 04:11:21;;;;;;;5.28;0.00;;;7.70;99.90;;;;;;5020011;28;20029;-78
2023/11/16 04:13:47;;;;;;;8.38;0.25;;;;;;;;;;5017530;28;20040;-79
2023/11/16 04:16:21;;;;;;;5.05;0.00;;;7.70;99.90;;;;;;5015716;28;20030;-78
2023/11/16 04:18:49;;;;;;;1.95;0.35;;;7.70;99.90;;;;;;5018428;28;20072;-78
2023/11/16 04:21:18;;;;;;;5.32;0.08;;;9.30;99.90;;;;;;5001669;28;20112;-78
2023/11/16 04:23:45;;;;;;;;;;;11.30;99.90;;;;;;5017938;28;20022;-77
2023/11/16 04:26:11;;;;;;;6.20;0.30;;;9.30;99.90;;;;;;5016163;28;19905;-78
2023/11/16 04:28:36;;;;;;;4.43;0.00;;;7.60;99.90;;;;;;5016721;28;20037;-78
2023/11/16 04:31:02;;;;;;;0.68;0.00;;;7.60;99.90;;;;;;5016269;28;20014;-77
2023/11/16 04:33:29;;;;;;;1.40;0.00;;;;;;;;;;5017136;28;20026;-77
2023/11/16 04:35:55;;;;;;;3.08;0.00;;;7.40;99.90;;;;;;5017619;28;20116;-78
2023/11/16 04:38:22;;;;;;;1.27;0.00;;;7.30;99.90;;;;;;5017426;28;20022;-77
2023/11/16 04:40:47;;;;;;;0.70;0.00;;;7.20;99.90;;;;;;5015550;28;20045;-77
2023/11/16 04:43:15;;;;;;;3.03;0.00;;;7.20;99.90;;;;;;5016673;28;20038;-77
2023/11/16 04:45:42;;;;;;;1.90;0.00;;;7.10;99.90;;;;;;5015428;28;20108;-77
2023/11/16 04:48:11;;;;;;;11.65;0.35;;;;;;;;;;5016130;28;20106;-77
2023/11/16 04:50:38;;;;;;;2.70;0.05;;;7.10;99.90;;;;;;5016384;28;20147;-77
2023/11/16 04:53:03;;;;;;;2.90;0.20;;;7.10;99.90;;;;;;5017026;28;20018;-77
2023/11/16 04:55:29;;;;;;;16.45;0.08;;;7.10;99.90;;;;;;5016549;28;20381;-78
2023/11/16 04:57:54;;;;;;;3.92;0.28;;;7.10;99.90;;;;;;5016114;28;20486;-77
2023/11/16 05:00:20;;;;;;;2.17;0.00;;;7.10;99.90;;;;;;5015609;28;20049;-77
2023/11/16 05:02:46;;;;;;;41.95;0.85;;;7.10;99.90;;;;;;5015519;28;20044;-78
2023/11/16 05:05:16;;;;;;;8.95;0.10;;;7.10;99.90;;;;;;5016030;28;20168;-77
2023/11/16 05:07:42;;;;;;;5.20;0.00;;;7.10;99.90;;;;;;5017601;28;20485;-77
2023/11/16 05:10:10;;;;;;;6.43;0.17;;;7.80;99.90;;;;;;5015823;28;20053;-77
2023/11/16 05:12:36;;;;;;;2.33;0.00;;;7.10;99.90;;;;;;5015810;28;20018;-77
2023/11/16 05:15:03;;;;;;;0.63;0.00;;;7.10;99.90;;;;;;5016099;28;20022;-78
2023/11/16 05:17:29;;;;;;;3.22;0.45;;;7.10;99.90;;;;;;5016143;28;20125;-77
2023/11/16 05:19:55;;;;;;;0.80;0.00;;;7.70;99.90;;;;;;5014624;28;20053;-77
2023/11/16 05:22:21;;;;;;;1.67;0.00;;;7.10;99.90;;;;;;5015942;28;20014;-77
2023/11/16 05:24:47;;;;;;;4.45;0.17;;;7.10;99.90;;;;;;5015789;28;20511;-77
2023/11/16 05:27:12;;;;;;;1.75;0.10;;;7.10;99.90;;;;;;5016609;28;20097;-77
2023/11/16 05:29:38;;;;;;;3.30;0.00;;;9.90;99.90;;;;;;5014267;28;20017;-78
2023/11/16 05:32:04;;;;;;;0.95;0.00;;;7.10;99.90;;;;;;5015190;28;20033;-78
2023/11/16 05:34:31;;;;;;;3.35;0.32;;;7.10;99.90;;;;;;5015302;28;20018;-77
2023/11/16 05:36:57;;;;;;;2.88;0.35;;;8.50;99.90;;;;;;5014961;28;20018;-78
2023/11/16 05:39:23;;;;;;;7.88;0.25;;;6.90;99.90;;;;;;5014572;28;20545;-78
2023/11/16 05:41:49;;;;;;;4.30;0.10;;;7.00;99.90;;;;;;5016786;28;20036;-77
2023/11/16 05:44:15;;;;;;;2.58;0.10;;;7.00;99.90;;;;;;5015437;28;20026;-78
2023/11/16 05:46:43;;;;;;;1.80;0.03;;;7.00;99.90;;;;;;5014731;28;20018;-77
2023/11/16 05:49:09;;;;;;;1.10;0.00;;;7.10;99.90;;;;;;5015875;28;20026;-78
2023/11/16 05:51:36;;;;;;;3.80;0.40;;;;;;;;;;5015836;28;20109;-78
2023/11/16 05:54:05;;;;;;;1.52;0.00;;;7.10;99.90;;;;;;5014740;28;20045;-78
2023/11/16 05:56:31;;;;;;;2.80;0.30;;;7.10;99.90;;;;;;5015207;28;20018;-78
2023/11/16 05:58:57;;;;;;;4.13;0.10;;;6.90;99.90;;;;;;5014449;28;20417;-77
2023/11/16 06:01:22;;;;;;;1.13;0.00;;;10.40;99.90;;;;;;5015550;28;20018;-78
2023/11/16 06:03:48;;;;;;;3.42;0.30;;;7.20;99.90;;;;;;5014308;28;20088;-79
2023/11/16 06:06:14;;;;;;;0.50;0.00;;;;;;;;;;5014760;28;20500;-77
2023/11/16 06:08:39;;;;;;;3.85;0.08;;;7.40;99.90;;;;;;5014124;28;20414;-78
2023/11/16 06:11:08;;;;;;;1.98;0.15;;;7.30;99.90;;;;;;5015480;28;20096;-78
2023/11/16 06:13:34;;;;;;;3.57;0.10;;;7.40;99.90;;;;;;5014851;28;20065;-78
2023/11/16 06:16:00;;;;;;;4.03;0.00;;;7.30;99.90;;;;;;5019642;28;20262;-78
2023/11/16 06:18:26;;;;;;;4.22;0.10;;;7.50;99.90;;;;;;5022474;28;20481;-78
2023/11/16 06:20:52;;;;;;;4.75;0.30;;;7.50;99.90;;;;;;5022037;28;20401;-77
2023/11/16 06:23:18;;;;;;;3.28;0.13;;;;;;;;;;5020742;28;20021;-78
2023/11/16 06:25:43;;;;;;;3.05;0.57;;;7.50;99.90;;;;;;5020023;28;20037;-78
2023/11/16 06:28:10;;;;;;;0.38;0.10;;;7.50;99.90;;;;;;5019943;28;20489;-78
2023/11/16 06:30:36;;;;;;;2.08;0.00;;;10.50;99.90;;;;;;5019931;28;20014;-78
2023/11/16 06:33:02;;;;;;;2.17;0.60;;;7.50;99.90;;;;;;5019229;28;20024;-76
2023/11/16 06:35:27;;;;;;;1.95;0.00;;;9.70;99.90;;;;;;5017549;28;20026;-78
2023/11/16 06:37:53;;;;;;;2.83;0.90;;;7.60;99.90;;;;;;5018550;28;20033;-78
2023/11/16 06:40:19;;;;;;;2.22;0.00;;;7.60;99.90;;;;;;5019416;28;20044;-77
2023/11/16 06:42:44;;;;;;;3.65;0.08;;;7.80;99.90;;;;;;5017263;28;20025;-78
2023/11/16 06:45:12;;;;;;;2.22;0.00;;;8.90;99.90;;;;;;5021000;28;20022;-78
2023/11/16 06:47:37;;;;;;;1.63;0.30;;;7.60;99.90;;;;;;5023115;28;20029;-78
2023/11/16 06:50:04;;;;;;;1.15;0.20;;;7.60;99.90;;;;;;5021798;28;20026;-78
2023/11/16 06:52:30;;;;;;;1.63;0.10;;;7.60;99.90;;;;;;5021749;28;20040;-78
2023/11/16 06:54:56;;;;;;;3.50;0.10;;;10.30;99.90;;;;;;5021622;28;20097;-77
2023/11/16 06:57:22;;;;;;;2.55;0.30;;;9.00;99.90;;;;;;5019695;28;20036;-78
2023/11/16 06:59:49;;;;;;;1.25;0.10;;;7.70;99.90;;;;;;5019664;28;20030;-78
2023/11/16 07:02:15;;;;;;;2.85;0.73;;;7.70;99.90;;;;;;5019740;28;20026;-78
2023/11/16 07:04:41;;;;;;;1.73;0.32;;;7.60;99.90;;;;;;5018046;28;20076;-77
2023/11/16 07:07:07;;;;;;;3.08;0.40;;;8.80;99.90;;;;;;5015601;28;20112;-77
2023/11/16 07:09:32;;;;;;;6.00;0.60;;;7.70;99.90;;;;;;5016020;28;20144;-76
2023/11/16 07:11:59;;;;;;;6.78;1.02;;;8.40;99.90;;;;;;5017343;28;20018;-78
2023/11/16 07:14:25;;;;;;;2.88;0.50;;;7.50;99.90;;;;;;5016292;28;20014;-79
2023/11/16 07:16:53;;;;;;;5.05;0.80;;;10.30;99.90;;;;;;5017723;28;20061;-78
2023/11/16 07:19:19;;;;;;;0.85;0.28;;;7.70;99.90;;;;;;5017718;28;20053;-76
2023/11/16 07:21:44;;;;;;;2.05;0.25;;;9.40;99.90;;;;;;5020382;28;20029;-79
2023/11/16 07:24:11;;;;;;;3.20;0.70;;;;;;;;;;5021231;28;20064;-78
2023/11/16 07:26:37;;;;;;;12.50;1.42;;;;;;;;;;5019820;28;20030;-78
2023/11/16 07:29:03;;;;;;;2.78;0.60;;;;;;;;;;5020228;28;20508;-78
2023/11/16 07:31:29;;;;;;;2.67;1.02;;;7.70;99.90;;;;;;5020472;28;20490;-78
2023/11/16 07:33:57;;;;;;;2.03;0.82;;;7.70;99.90;;;;;;5019589;28;20028;-78
2023/11/16 07:36:26;;;;;;;4.35;0.68;;;9.20;99.90;;;;;;5019006;28;20025;-77
2023/11/16 07:38:56;;;;;;;4.38;1.20;;;7.70;99.90;;;;;;5018729;28;20010;-77
2023/11/16 07:41:22;;;;;;;7.03;1.40;;;7.70;99.90;;;;;;5017731;28;20026;-78
2023/11/16 07:43:48;;;;;;;4.93;1.33;;;11.30;99.90;;;;;;5017549;28;20021;-77
2023/11/16 07:46:14;;;;;;;7.68;1.60;;;7.60;99.90;;;;;;5018386;28;20018;-77
2023/11/16 07:48:43;;;;;;;6.43;1.30;;;8.80;99.90;;;;;;5016651;28;20072;-77
2023/11/16 07:51:09;;;;;;;;;;;7.60;99.90;;;;;;5017174;28;20018;-78
2023/11/16 07:53:35;;;;;;;6.68;1.70;;;7.90;99.90;;;;;;5017724;28;20059;-78
2023/11/16 07:56:06;;;;;;;8.88;2.15;;;7.90;99.90;;;;;;5017604;28;20403;-78
2023/11/16 07:58:37;;;;;;;3.17;1.55;;;8.00;99.90;;;;;;5016235;28;20026;-77
2023/11/16 08:01:12;;;;;;;9.32;2.45;;;8.00;99.90;;;;;;5015986;28;20054;-80
2023/11/16 08:03:44;;;;;;;8.15;2.20;;;8.10;99.90;;;;;;5014757;28;20480;-79
2023/11/16 08:06:14;;;;;;;8.45;3.83;;;8.20;99.90;;;;;;5014540;28;20026;-77
2023/11/16 08:08:45;;;;;;;13.52;3.83;;;8.20;99.90;;;;;;5016651;28;20034;-76
2023/11/16 08:11:12;;;;;;;13.98;3.95;;;8.20;99.90;;;;;;5014173;28;20018;-76
2023/11/16 08:13:41;;;;;;;9.95;2.47;;;8.30;99.90;;;;;;5014554;28;20045;-77
2023/11/16 08:16:10;;;;;;;10.10;3.15;;;8.30;99.90;;;;;;5016146;28;20370;-78
2023/11/16 08:18:41;;;;;;;8.50;2.30;;;8.30;99.90;;;;;;5015157;28;20025;-77
2023/11/16 08:21:07;;;;;;;7.38;2.55;;;8.40;99.90;;;;;;5013564;28;20497;-76
2023/11/16 08:23:38;;;;;;;7.60;2.65;;;8.50;99.90;;;;;;5013513;28;20018;-75
2023/11/16 08:26:06;;;;;;;10.13;3.20;;;8.40;99.90;;;;;;5013537;28;20030;-78
2023/11/16 08:28:32;;;;;;;10.05;3.55;;;8.40;99.90;;;;;;5015851;28;20021;-79
2023/11/16 08:30:58;;;;;;;15.32;5.10;;;8.40;99.90;;;;;;5014755;28;20028;-77
2023/11/16 08:33:25;;;;;;;8.32;3.90;;;10.80;99.90;;;;;;5015827;28;20485;-77
2023/11/16 08:35:51;;;;;;;8.02;3.20;;;8.30;99.90;;;;;;5014574;28;20513;-78
2023/11/16 08:38:17;;;;;;;10.30;4.15;;;8.60;99.90;;;;;;5013930;28;20058;-77
2023/11/16 08:40:43;;;;;;;11.30;4.18;;;11.10;99.90;;;;;;5013296;28;20171;-77
2023/11/16 08:43:11;;;;;;;12.15;4.53;;;8.60;99.90;;;;;;5013049;28;20113;-77
2023/11/16 08:45:39;;;;;;;13.02;4.95;;;9.30;99.90;;;;;;5013103;28;20100;-77
2023/11/16 08:48:07;;;;;;;13.32;4.32;;;8.60;99.90;;;;;;5014069;28;20026;-77
2023/11/16 08:50:33;;;;;;;12.30;3.63;;;8.60;99.90;;;;;;5013394;28;20041;-77
2023/11/16 08:53:00;;;;;;;14.70;3.65;;;10.50;99.90;;;;;;5014985;28;20021;-77
2023/11/16 08:55:26;;;;;;;10.70;4.72;;;8.70;99.90;;;;;;5012922;28;20465;-77
2023/11/16 08:57:53;;;;;;;12.88;4.45;;;;;;;;;;5012965;28;20076;-77
2023/11/16 09:00:30;;;;;;;18.13;5.05;;;8.80;99.90;;;;;;5012742;28;20041;-76
2023/11/16 09:03:08;;;;;;;19.35;5.93;;;8.80;99.90;;;;;;5013103;28;20037;-76
2023/11/16 09:05:37;;;;;;;15.25;4.50;;;8.90;99.90;;;;;;5013022;28;20025;-76
2023/11/16 09:08:04;;;;;;;16.77;5.28;;;8.90;99.90;;;;;;5014148;28;20026;-77
2023/11/16 09:10:31;;;;;;;11.07;4.35;;;9.00;99.90;;;;;;5014163;28;20033;-77
2023/11/16 09:13:00;;;;;;;18.98;5.20;;;8.90;99.90;;;;;;5013106;28;20022;-78
2023/11/16 09:15:26;;;;;;;12.07;5.18;;;8.90;99.90;;;;;;5012854;28;20083;-79
2023/11/16 09:17:52;;;;;;;9.65;3.90;;;10.60;99.90;;;;;;5014230;28;20393;-77
2023/11/16 09:20:18;;;;;;;14.15;3.90;;;9.00;99.90;;;;;;5014462;28;20030;-79
2023/11/16 09:22:45;;;;;;;15.93;4.38;;;9.00;99.90;;;;;;5013012;28;20026;-79
2023/11/16 09:25:19;;;;;;;13.32;3.95;;;9.10;99.90;;;;;;5013177;28;20030;-78
2023/11/16 09:27:52;;;;;;;17.55;4.55;;;9.70;99.90;;;;;;5012883;28;20029;-79
2023/11/16 09:30:18;;;;;;;10.20;3.60;;;9.10;99.90;;;;;;5014561;28;20501;-78
2023/11/16 09:32:44;;;;;;;9.98;4.05;;;10.70;99.90;;;;;;5012838;28;20021;-77
2023/11/16 09:35:14;;;;;;;8.80;3.72;;;10.30;99.90;;;;;;5012818;28;20088;-77
2023/11/16 09:37:45;;;;;;;11.85;4.25;;;9.20;99.90;;;;;;5012874;28;20457;-77
2023/11/16 09:40:15;;;;;;;11.85;3.55;;;9.20;99.90;;;;;;5012535;28;20505;-77
2023/11/16 09:42:44;;;;;;;14.32;4.78;;;9.30;99.90;;;;;;5014208;28;20030;-77
2023/11/16 09:45:09;;;;;;;10.40;3.78;;;9.30;99.90;;;;;;5014248;28;20022;-77
2023/11/16 09:47:44;;;;;;;17.60;3.88;;;9.30;99.90;;;;;;5014456;28;20036;-78
2023/11/16 09:50:09;;;;;;;12.23;4.35;;;10.30;99.90;;;;;;5016991;28;20026;-76
2023/11/16 09:52:38;;;;;;;9.35;3.60;;;9.40;99.90;;;;;;5017213;28;20029;-76
2023/11/16 09:55:09;;;;;;;8.52;3.55;;;9.40;99.90;;;;;;5018218;28;20064;-77
2023/11/16 09:57:41;;;;;;;10.00;3.92;;;9.40;99.90;;;;;;5016826;28;20049;-77
2023/11/16 10:00:14;;;;;;;7.25;4.10;;;9.40;99.90;;;;;;5016210;28;20112;-77
2023/11/16 10:02:47;;;;;;;8.75;4.10;;;9.40;99.90;;;;;;5017050;28;20026;-76
2023/11/16 10:05:27;;;;;;;12.77;4.45;;;9.40;99.90;;;;;;5017024;28;20018;-77
2023/11/16 10:07:53;;;;;;;11.90;4.43;;;9.40;99.90;;;;;;5017072;28;20033;-76
2023/11/16 10:10:25;;;;;;;9.10;3.72;;;9.40;99.90;;;;;;5015674;28;20025;-77
2023/11/16 10:12:51;;;;;;;11.70;4.38;;;9.50;99.90;;;;;;5017399;28;20022;-76
2023/11/16 10:15:20;;;;;;;10.13;3.33;;;9.50;99.90;;;;;;5017025;28;20101;-76
2023/11/16 10:17:55;;;;;;;13.55;3.38;;;10.10;99.90;;;;;;5015534;28;20045;-76
2023/11/16 10:20:23;;;;;;;6.53;2.70;;;9.50;99.90;;;;;;5017298;28;20029;-76
2023/11/16 10:22:50;;;;;;;7.32;3.22;;;9.40;99.90;;;;;;5016905;28;20022;-77
2023/11/16 10:25:17;;;;;;;11.63;3.08;;;9.50;99.90;;;;;;5016729;28;20026;-77
2023/11/16 10:27:43;;;;;;;9.57;4.15;;;9.50;99.90;;;;;;5016770;28;20389;-77
2023/11/16 10:30:15;;;;;;;7.03;2.65;;;9.40;99.90;;;;;;5016407;28;20087;-77
2023/11/16 10:32:42;;;;;;;8.70;2.13;;;9.50;99.90;;;;;;5015215;28;20109;-77
2023/11/16 10:35:14;;;;;;;8.88;2.78;;;9.50;99.90;;;;;;5015194;28;20089;-77
2023/11/16 10:37:44;;;;;;;7.90;3.00;;;9.50;99.90;;;;;;5017008;28;20080;-77
2023/11/16 10:40:11;;;;;;;8.52;2.85;;;9.50;99.90;;;;;;5015071;28;20112;-77
2023/11/16 10:42:38;;;;;;;7.07;2.47;;;9.50;99.90;;;;;;5016349;28;20032;-77
2023/11/16 10:45:06;;;;;;;7.53;2.50;;;9.50;99.90;;;;;;5016523;28;20026;-77
2023/11/16 10:47:32;;;;;;;6.82;2.30;;;9.50;99.90;;;;;;5015056;28;20168;-77
2023/11/16 10:49:58;;;;;;;7.70;2.75;;;9.50;99.90;;;;;;5016233;28;20026;-77
2023/11/16 10:52:26;;;;;;;7.15;2.45;;;9.40;99.90;;;;;;5016229;28;20386;-76
2023/11/16 10:54:54;;;;;;;5.75;2.45;;;9.40;99.90;;;;;;5016069;28;20014;-77
2023/11/16 10:57:20;;;;;;;8.23;2.90;;;9.40;99.90;;;;;;5016244;28;20018;-76
2023/11/16 10:59:50;;;;;;;5.82;2.47;;;9.40;99.90;;;;;;5015371;28;20040;-76
2023/11/16 11:02:23;;;;;;;10.18;3.20;;;9.40;99.90;;;;;;5016007;28;20026;-76
2023/11/16 11:04:55;;;;;;;8.25;2.25;;;9.40;99.90;;;;;;5015139;28;20026;-77
2023/11/16 11:07:20;;;;;;;7.07;2.65;;;9.40;99.90;;;;;;5014693;28;20485;-76
2023/11/16 11:09:51;;;;;;;6.85;3.03;;;9.40;99.90;;;;;;5014944;28;20049;-76
2023/11/16 11:12:18;;;;;;;8.85;2.60;;;9.40;99.90;;;;;;5014671;28;20018;-76
2023/11/16 11:14:51;;;;;;;7.03;2.47;;;9.40;99.90;;;;;;5014680;28;20018;-76
2023/11/16 11:17:20;;;;;;;9.68;2.58;;;9.30;99.90;;;;;;5014817;28;20044;-77
2023/11/16 11:19:59;;;;;;;9.32;2.50;;;9.30;99.90;;;;;;5015889;28;20022;-76
2023/11/16 11:22:28;;;;;;;10.60;3.35;;;9.30;99.90;;;;;;5015551;28;20393;-77
2023/11/16 11:24:57;;;;;;;8.20;3.13;;;9.40;99.90;;;;;;5015606;28;20032;-77
2023/11/16 11:27:25;;;;;;;9.85;2.80;;;9.40;99.90;;;;;;5015623;28;20033;-77
2023/11/16 11:29:58;;;;;;;7.13;2.05;;;9.40;99.90;;;;;;5014345;28;20026;-77
2023/11/16 11:32:33;;;;;;;6.40;2.70;;;9.40;99.90;;;;;;5014372;28;20397;-77
2023/11/16 11:35:10;;;;;;;13.15;3.20;;;9.40;99.90;;;;;;5014426;28;20068;-77
2023/11/16 11:37:39;;;;;;;7.38;2.65;;;9.40;99.90;;;;;;5014191;28;20022;-76
2023/11/16 11:40:08;;;;;;;;;;;9.40;99.90;;;;;;5014468;28;20045;-76
2023/11/16 11:42:38;;;;;;;8.32;2.60;;;9.40;99.90;;;;;;5014086;28;20357;-77
2023/11/16 11:45:05;;;;;;;11.27;4.22;;;9.40;99.90;;;;;;5014019;28;20085;-77
2023/11/16 11:47:32;;;;;;;11.90;3.22;;;9.30;99.90;;;;;;5012576;28;20052;-76
2023/11/16 11:49:58;;;;;;;8.50;2.50;;;9.40;99.90;;;;;;5014050;28;20060;-77
2023/11/16 11:52:27;;;;;;;5.28;2.22;;;9.40;99.90;;;;;;5014983;28;20029;-77
2023/11/16 11:54:52;;;;;;;4.85;2.58;;;9.40;99.90;;;;;;5013103;28;20124;-77
2023/11/16 11:57:19;;;;;;;7.03;2.80;;;9.40;99.90;;;;;;5015357;28;20057;-77
2023/11/16 11:59:49;;;;;;;8.10;3.28;;;9.30;99.90;;;;;;5015184;28;20127;-77
2023/11/16 12:02:14;;;;;;;9.77;2.95;;;9.30;99.90;;;;;;5015372;28;20026;-77
2023/11/16 12:04:40;;;;;;;9.88;2.53;;;9.30;99.90;;;;;;5015022;28;20563;-77
2023/11/16 12:07:07;;;;;;;10.32;3.22;;;9.30;99.90;;;;;;5014667;28;20030;-77
2023/11/16 12:09:44;;;;;;;9.52;2.70;;;9.30;99.90;;;;;;5015090;28;20120;-77
2023/11/16 12:12:11;;;;;;;9.23;2.53;;;9.30;99.90;;;;;;5014748;28;20014;-77
2023/11/16 12:14:38;;;;;;;7.45;2.35;;;9.30;99.90;;;;;;5014946;28;20545;-77
2023/11/16 12:17:04;;;;;;;8.55;2.08;;;10.40;99.90;;;;;;5014803;28;20366;-75
2023/11/16 12:19:35;;;;;;;9.25;2.50;;;9.30;99.90;;;;;;5013461;28;20116;-77
2023/11/16 12:22:08;;;;;;;7.15;2.47;;;10.00;99.90;;;;;;5015018;28;20108;-77
2023/11/16 12:24:34;;;;;;;5.72;1.40;;;9.20;99.90;;;;;;5015201;28;20064;-76
2023/11/16 12:26:59;;;;;;;5.18;1.85;;;9.20;99.90;;;;;;5014511;28;20068;-77
2023/11/16 12:29:26;;;;;;;6.30;1.83;;;9.10;99.90;;;;;;5013185;28;20018;-76
2023/11/16 12:31:55;;;;;;;5.03;1.33;;;9.10;99.90;;;;;;5014310;28;20049;-77
2023/11/16 12:34:24;;;;;;;2.67;0.88;;;9.10;99.90;;;;;;5014519;28;20547;-77
2023/11/16 12:36:50;;;;;;;5.13;1.25;;;9.00;99.90;;;;;;5013040;28;20116;-77
2023/11/16 12:39:16;;;;;;;8.15;1.20;;;9.00;99.90;;;;;;5012782;28;20485;-76
2023/11/16 12:41:42;;;;;;;4.45;0.98;;;;;;;;;;5014195;28;20500;-77
2023/11/16 12:44:10;;;;;;;7.15;2.45;;;9.00;99.90;;;;;;5012814;28;20037;-77
2023/11/16 12:46:37;;;;;;;4.37;1.13;;;8.90;99.90;;;;;;5012975;28;20025;-77
2023/11/16 12:49:03;;;;;;;4.10;0.80;;;9.30;99.90;;;;;;5014079;28;20021;-77
2023/11/16 12:51:29;;;;;;;4.00;0.70;;;;;;;;;;5014083;28;20393;-76
2023/11/16 12:53:55;;;;;;;2.63;0.43;;;8.90;99.90;;;;;;5012533;28;20085;-77
2023/11/16 12:56:20;;;;;;;2.10;0.80;;;8.90;99.90;;;;;;5012721;28;20056;-77
2023/11/16 12:58:46;;;;;;;3.03;0.70;;;8.80;99.90;;;;;;5013567;28;20560;-77
2023/11/16 13:01:12;;;;;;;6.57;0.73;;;8.80;99.90;;;;;;5014682;28;20026;-77